createdAt,value
2022-08-19T00:02:05.950Z,9.13
2022-08-19T00:07:08.386Z,8.87
2022-08-19T00:12:11.943Z,13.40
2022-08-19T00:17:14.170Z,9.47
2022-08-19T00:22:16.302Z,9.97
2022-08-19T00:27:25.060Z,9.47
2022-08-19T00:32:28.622Z,9.90
2022-08-19T00:37:32.027Z,11.13
2022-08-19T00:42:35.614Z,11.73
2022-08-19T00:47:37.679Z,10.83
2022-08-19T00:52:43.815Z,8.80
2022-08-19T00:57:56.224Z,11.30
2022-08-19T01:02:58.722Z,11.70
2022-08-19T01:08:03.287Z,9.63
2022-08-19T01:13:06.745Z,9.13
2022-08-19T01:18:12.351Z,11.07
2022-08-19T01:23:17.282Z,11.00
2022-08-19T01:28:33.624Z,9.33
2022-08-19T01:33:42.159Z,11.27
2022-08-19T01:38:46.239Z,10.50
2022-08-19T01:44:09.789Z,10.37
2022-08-19T01:49:11.320Z,11.57
2022-08-19T01:54:23.450Z,14.27
2022-08-19T01:59:32.286Z,13.60
2022-08-19T02:04:34.779Z,15.60
2022-08-19T02:09:39.234Z,15.33
2022-08-19T02:14:41.841Z,15.73
2022-08-19T02:19:44.029Z,15.83
2022-08-19T02:24:47.106Z,15.77
2022-08-19T02:29:50.900Z,14.53
2022-08-19T02:34:52.999Z,14.43
2022-08-19T02:39:56.655Z,16.07
2022-08-19T02:44:58.526Z,13.17
2022-08-19T02:50:02.807Z,16.20
2022-08-19T02:55:08.026Z,13.03
2022-08-19T03:00:10.987Z,16.80
2022-08-19T03:05:12.996Z,16.03
2022-08-19T03:10:16.708Z,16.13
2022-08-19T03:15:20.146Z,13.67
2022-08-19T03:20:21.884Z,14.67
2022-08-19T03:25:25.495Z,14.80
2022-08-19T03:30:27.243Z,13.23
2022-08-19T03:35:29.533Z,14.03
2022-08-19T03:40:33.604Z,12.67
2022-08-19T03:45:35.808Z,13.80
2022-08-19T03:50:40.197Z,13.77
2022-08-19T03:55:43.867Z,13.33
2022-08-19T04:00:45.652Z,14.73
2022-08-19T04:05:48.162Z,15.13
2022-08-19T04:10:51.588Z,15.37
2022-08-19T04:15:54.196Z,15.57
2022-08-19T04:20:56.313Z,15.43
2022-08-19T04:25:59.698Z,14.90
2022-08-19T04:31:01.379Z,16.30
2022-08-19T04:36:03.431Z,16.47
2022-08-19T04:41:06.811Z,13.40
2022-08-19T04:46:10.024Z,14.73
2022-08-19T04:51:14.201Z,15.63
2022-08-19T04:56:18.284Z,13.00
2022-08-19T05:01:22.916Z,13.00
2022-08-19T05:06:25.260Z,13.60
2022-08-19T05:11:31.748Z,12.57
2022-08-19T05:16:33.976Z,11.93
2022-08-19T05:21:37.239Z,12.23
2022-08-19T05:26:42.939Z,11.10
2022-08-19T05:31:46.116Z,10.60
2022-08-19T05:36:48.843Z,10.20
2022-08-19T05:41:55.402Z,9.25
2022-08-19T05:46:57.468Z,9.95
2022-08-19T05:51:59.391Z,10.37
2022-08-19T05:57:03.633Z,9.03
2022-08-19T06:02:07.128Z,12.07
2022-08-19T06:07:12.683Z,10.60
2022-08-19T06:12:15.961Z,10.10
2022-08-19T06:17:20.858Z,10.57
2022-08-19T06:22:23.633Z,10.10
2022-08-19T06:27:27.073Z,10.85
2022-08-19T06:32:28.792Z,9.77
2022-08-19T06:37:31.129Z,10.18
2022-08-19T06:42:34.494Z,10.05
2022-08-19T06:47:36.645Z,12.18
2022-08-19T06:52:38.715Z,10.07
2022-08-19T06:57:42.547Z,10.00
2022-08-19T07:02:49.758Z,10.75
2022-08-19T07:08:04.577Z,11.18
2022-08-19T07:13:07.995Z,10.63
2022-08-19T07:18:11.528Z,10.73
2022-08-19T07:23:16.029Z,11.40
2022-08-19T07:28:24.276Z,9.90
2022-08-19T07:33:27.834Z,9.15
2022-08-19T07:38:29.805Z,11.02
2022-08-19T07:43:34.890Z,10.43
2022-08-19T07:48:37.869Z,10.50
2022-08-19T07:53:40.157Z,12.85
2022-08-19T07:58:46.286Z,12.80
2022-08-19T08:03:49.131Z,13.70
2022-08-19T08:08:51.146Z,11.05
2022-08-19T08:14:00.760Z,11.50
2022-08-19T08:19:14.829Z,12.88
2022-08-19T08:24:29.205Z,11.57
2022-08-19T08:29:35.380Z,11.98
2022-08-19T08:34:37.462Z,12.93
2022-08-19T08:39:39.561Z,13.02
2022-08-19T08:50:04.715Z,13.15
2022-08-19T08:55:11.608Z,12.82
2022-08-19T09:00:19.187Z,13.32
2022-08-19T09:05:25.825Z,13.85
2022-08-19T09:10:33.113Z,12.77
2022-08-19T09:15:44.615Z,12.52
2022-08-19T09:20:47.754Z,13.73
2022-08-19T09:25:50.035Z,14.23
2022-08-19T09:30:53.916Z,16.48
2022-08-19T09:36:04.308Z,16.40
2022-08-19T09:41:14.526Z,16.90
2022-08-19T09:46:20.858Z,18.02
2022-08-19T09:51:27.651Z,16.83
2022-08-19T09:56:31.287Z,17.08
2022-08-19T10:01:37.675Z,19.17
2022-08-19T10:06:46.381Z,20.35
2022-08-19T10:11:54.665Z,20.30
2022-08-19T10:16:59.452Z,21.42
2022-08-19T10:22:04.536Z,22.25
2022-08-19T10:27:06.707Z,24.70
2022-08-19T10:32:12.216Z,24.00
2022-08-19T10:37:23.906Z,24.95
2022-08-19T10:42:32.110Z,23.05
2022-08-19T10:47:35.725Z,22.88
2022-08-19T10:52:39.064Z,21.77
2022-08-19T10:58:01.327Z,23.67
2022-08-19T11:03:04.262Z,27.95
2022-08-19T11:08:07.224Z,26.05
2022-08-19T11:13:25.356Z,25.38
2022-08-19T11:18:28.671Z,26.17
2022-08-19T11:23:30.773Z,25.38
2022-08-19T11:28:32.884Z,28.30
2022-08-19T11:33:36.401Z,26.80
2022-08-19T11:38:38.755Z,26.27
2022-08-19T11:43:40.816Z,24.92
2022-08-19T11:48:44.726Z,25.90
2022-08-19T11:53:47.362Z,21.35
2022-08-19T11:58:49.994Z,22.17
2022-08-19T12:03:56.122Z,19.88
2022-08-19T12:08:59.881Z,23.70
2022-08-19T12:14:03.335Z,24.42
2022-08-19T12:19:06.964Z,22.25
2022-08-19T12:24:08.942Z,23.55
2022-08-19T12:29:10.643Z,21.00
2022-08-19T12:34:14.236Z,21.42
2022-08-19T12:39:16.011Z,18.30
2022-08-19T12:44:18.540Z,18.33
2022-08-19T12:49:51.990Z,16.98
2022-08-19T12:54:45.548Z,17.15
2022-08-19T12:59:47.534Z,19.25
2022-08-19T13:04:50.965Z,18.98
2022-08-19T13:09:53.111Z,15.60
2022-08-19T13:14:56.036Z,14.75
2022-08-19T13:19:59.299Z,15.85
2022-08-19T13:25:00.982Z,13.07
2022-08-19T13:30:04.377Z,15.98
2022-08-19T13:35:08.221Z,14.95
2022-08-19T13:40:14.815Z,12.18
2022-08-19T13:45:19.462Z,13.93
2022-08-19T13:50:25.127Z,15.93
2022-08-19T13:55:28.010Z,14.30
2022-08-19T14:00:33.096Z,14.23
2022-08-19T14:05:38.162Z,14.50
2022-08-19T14:10:40.644Z,13.50
2022-08-19T14:15:42.365Z,13.48
2022-08-19T14:20:46.057Z,14.45
2022-08-19T14:25:47.770Z,14.45
2022-08-19T14:30:49.473Z,15.13
2022-08-19T14:35:59.692Z,12.98
2022-08-19T14:41:14.470Z,14.43
2022-08-19T14:46:19.069Z,13.48
2022-08-19T14:51:26.034Z,13.88
2022-08-19T14:56:30.046Z,13.02
2022-08-19T15:01:31.928Z,10.57
2022-08-19T15:06:35.251Z,9.95
2022-08-19T15:11:37.606Z,11.18
2022-08-19T15:16:39.307Z,10.48
2022-08-19T15:21:42.397Z,10.27
2022-08-19T15:26:44.150Z,9.82
2022-08-19T15:31:46.172Z,10.77
2022-08-19T15:36:52.690Z,11.18
2022-08-19T15:41:54.788Z,11.07
2022-08-19T15:46:56.936Z,13.63
2022-08-19T15:52:00.554Z,12.32
2022-08-19T15:57:02.213Z,13.60
2022-08-19T16:02:04.213Z,13.93
2022-08-19T16:07:07.652Z,14.57
2022-08-19T16:12:09.683Z,13.18
2022-08-19T16:17:13.474Z,13.68
2022-08-19T16:22:17.561Z,12.55
2022-08-19T16:27:19.351Z,17.65
2022-08-19T16:32:21.612Z,15.43
2022-08-19T16:37:24.999Z,14.93
2022-08-19T16:42:26.805Z,16.08
2022-08-19T16:47:28.681Z,18.42
2022-08-19T16:52:32.368Z,19.23
2022-08-19T16:57:34.358Z,17.60
2022-08-19T17:02:36.136Z,19.90
2022-08-19T17:07:40.085Z,18.83
2022-08-19T17:12:41.805Z,16.30
2022-08-19T17:17:43.518Z,19.03
2022-08-19T17:22:47.136Z,20.87
2022-08-19T17:27:49.203Z,17.17
2022-08-19T17:32:51.514Z,17.20
2022-08-19T17:37:54.674Z,17.57
2022-08-19T17:42:56.768Z,17.45
2022-08-19T17:47:58.948Z,14.57
2022-08-19T17:53:02.657Z,13.40
2022-08-19T17:58:05.273Z,14.87
2022-08-19T18:03:10.316Z,11.23
2022-08-19T18:08:15.956Z,12.43
2022-08-19T18:13:18.257Z,11.37
2022-08-19T18:18:20.305Z,14.83
2022-08-19T18:23:45.503Z,17.03
2022-08-19T18:28:49.986Z,14.37
2022-08-19T18:33:51.959Z,16.43
2022-08-19T18:38:55.074Z,14.13
2022-08-19T18:43:56.929Z,17.50
2022-08-19T18:48:58.665Z,16.23
2022-08-19T18:54:02.164Z,16.83
2022-08-19T18:59:04.126Z,13.13
2022-08-19T19:04:09.078Z,15.63
2022-08-19T19:09:15.740Z,15.37
2022-08-19T19:14:45.735Z,19.20
2022-08-19T19:19:44.738Z,16.60
2022-08-19T19:24:47.851Z,14.50
2022-08-19T19:29:52.310Z,15.63
2022-08-19T19:34:54.593Z,15.93
2022-08-19T19:39:57.727Z,17.50
2022-08-19T19:44:59.593Z,16.30
2022-08-19T19:50:14.273Z,19.23
2022-08-19T19:55:18.741Z,19.27
2022-08-19T20:00:21.431Z,17.07
2022-08-19T20:05:23.659Z,23.67
2022-08-19T20:10:27.186Z,18.93
2022-08-19T20:15:29.430Z,21.10
2022-08-19T20:20:31.819Z,19.57
2022-08-19T20:25:37.090Z,19.40
2022-08-19T20:30:44.418Z,24.77
2022-08-19T20:35:48.387Z,19.73
2022-08-19T20:40:51.530Z,18.67
2022-08-19T20:45:54.276Z,19.77
2022-08-19T20:50:56.564Z,17.83
2022-08-19T20:56:00.174Z,22.30
2022-08-19T21:01:03.749Z,17.43
2022-08-19T21:06:05.917Z,19.57
2022-08-19T21:11:09.691Z,20.57
2022-08-19T21:16:11.433Z,20.67
2022-08-19T21:21:13.309Z,18.50
2022-08-19T21:26:16.521Z,18.53
2022-08-19T21:31:18.364Z,21.27
2022-08-19T21:36:20.109Z,19.53
2022-08-19T21:41:23.628Z,18.40
2022-08-19T21:46:26.040Z,18.03
2022-08-19T21:56:49.692Z,18.00
2022-08-19T22:02:01.769Z,19.73
2022-08-19T22:07:13.937Z,22.43
2022-08-19T22:12:22.805Z,20.27
2022-08-19T22:17:25.603Z,19.37
2022-08-19T22:22:30.333Z,20.57
2022-08-19T22:27:33.495Z,25.17
2022-08-19T22:32:35.387Z,21.70
2022-08-19T22:37:37.145Z,23.90
2022-08-19T22:42:40.542Z,22.63
2022-08-19T22:47:42.656Z,24.03
2022-08-19T22:52:51.628Z,22.17
2022-08-19T22:57:56.395Z,23.23
2022-08-19T23:02:58.874Z,24.97
2022-08-19T23:08:00.614Z,26.17
2022-08-19T23:13:03.948Z,23.90
2022-08-19T23:18:06.031Z,20.17
2022-08-19T23:23:10.338Z,23.70
2022-08-19T23:28:13.671Z,18.83
2022-08-19T23:33:17.557Z,20.73
2022-08-19T23:38:19.870Z,21.10
2022-08-19T23:43:25.179Z,23.67
2022-08-19T23:48:28.322Z,18.43
2022-08-19T23:53:30.707Z,17.10
2022-08-19T23:58:35.684Z,16.30
